sensor_id;sensor_type;location;lat;lon;timestamp;P1;P2;P0
61584;PMS7003;47479;53.810;18.308;2022-11-20T00:03:23;41;33;21
61584;PMS7003;47479;53.810;18.308;2022-11-20T00:08:26;47;36;22
61584;PMS7003;47479;53.810;18.308;2022-11-20T00:13:41;39;32;20
61584;PMS7003;47479;53.810;18.308;2022-11-20T00:18:43;44;35;22
61584;PMS7003;47479;53.810;18.308;2022-11-20T00:23:45;47;37;21
61584;PMS7003;47479;53.810;18.308;2022-11-20T00:28:51;46;37;23
61584;PMS7003;47479;53.810;18.308;2022-11-20T00:33:53;46;37;23
61584;PMS7003;47479;53.810;18.308;2022-11-20T00:38:56;45;36;23
61584;PMS7003;47479;53.810;18.308;2022-11-20T00:44:00;49;38;24
61584;PMS7003;47479;53.810;18.308;2022-11-20T00:49:02;48;38;25
61584;PMS7003;47479;53.810;18.308;2022-11-20T00:54:03;40;31;21
61584;PMS7003;47479;53.810;18.308;2022-11-20T00:59:07;46;36;23
61584;PMS7003;47479;53.810;18.308;2022-11-20T01:04:08;48;38;23
61584;PMS7003;47479;53.810;18.308;2022-11-20T01:09:11;42;35;22
61584;PMS7003;47479;53.810;18.308;2022-11-20T01:14:15;43;36;23
61584;PMS7003;47479;53.810;18.308;2022-11-20T01:19:18;51;39;24
61584;PMS7003;47479;53.810;18.308;2022-11-20T01:24:21;41;33;23
61584;PMS7003;47479;53.810;18.308;2022-11-20T01:29:35;44;35;22
61584;PMS7003;47479;53.810;18.308;2022-11-20T01:34:37;42;34;20
61584;PMS7003;47479;53.810;18.308;2022-11-20T01:39:38;44;36;23
61584;PMS7003;47479;53.810;18.308;2022-11-20T01:44:45;43;35;22
61584;PMS7003;47479;53.810;18.308;2022-11-20T01:50:11;46;37;23
61584;PMS7003;47479;53.810;18.308;2022-11-20T01:55:20;44;34;22
61584;PMS7003;47479;53.810;18.308;2022-11-20T02:00:20;42;35;20
61584;PMS7003;47479;53.810;18.308;2022-11-20T02:10:37;42;33;21
61584;PMS7003;47479;53.810;18.308;2022-11-20T02:15:49;41;33;20
61584;PMS7003;47479;53.810;18.308;2022-11-20T02:20:56;41;31;21
61584;PMS7003;47479;53.810;18.308;2022-11-20T02:25:58;42;31;20
61584;PMS7003;47479;53.810;18.308;2022-11-20T02:31:01;41;34;21
61584;PMS7003;47479;53.810;18.308;2022-11-20T02:36:03;36;29;19
61584;PMS7003;47479;53.810;18.308;2022-11-20T02:41:05;38;30;19
61584;PMS7003;47479;53.810;18.308;2022-11-20T02:46:08;42;34;21
61584;PMS7003;47479;53.810;18.308;2022-11-20T02:51:11;44;34;19
61584;PMS7003;47479;53.810;18.308;2022-11-20T02:56:12;42;33;22
61584;PMS7003;47479;53.810;18.308;2022-11-20T03:01:14;43;34;21
61584;PMS7003;47479;53.810;18.308;2022-11-20T03:06:16;43;34;22
61584;PMS7003;47479;53.810;18.308;2022-11-20T03:11:18;39;32;20
61584;PMS7003;47479;53.810;18.308;2022-11-20T03:16:20;46;35;21
61584;PMS7003;47479;53.810;18.308;2022-11-20T03:21:23;42;33;19
61584;PMS7003;47479;53.810;18.308;2022-11-20T03:26:25;40;34;20
61584;PMS7003;47479;53.810;18.308;2022-11-20T03:31:44;39;33;19
61584;PMS7003;47479;53.810;18.308;2022-11-20T03:36:45;39;32;21
61584;PMS7003;47479;53.810;18.308;2022-11-20T03:41:47;41;33;21
61584;PMS7003;47479;53.810;18.308;2022-11-20T03:46:48;43;34;21
61584;PMS7003;47479;53.810;18.308;2022-11-20T03:51:50;45;35;20
61584;PMS7003;47479;53.810;18.308;2022-11-20T03:56:52;39;32;21
61584;PMS7003;47479;53.810;18.308;2022-11-20T04:01:53;44;35;20
61584;PMS7003;47479;53.810;18.308;2022-11-20T04:06:55;42;34;23
61584;PMS7003;47479;53.810;18.308;2022-11-20T04:11:57;42;34;21
61584;PMS7003;47479;53.810;18.308;2022-11-20T04:16:58;43;35;21
61584;PMS7003;47479;53.810;18.308;2022-11-20T04:22:00;42;34;21
61584;PMS7003;47479;53.810;18.308;2022-11-20T04:27:02;43;34;22
61584;PMS7003;47479;53.810;18.308;2022-11-20T04:32:04;44;35;20
61584;PMS7003;47479;53.810;18.308;2022-11-20T04:37:05;47;37;22
61584;PMS7003;47479;53.810;18.308;2022-11-20T04:42:08;42;33;20
61584;PMS7003;47479;53.810;18.308;2022-11-20T04:47:38;43;35;21
61584;PMS7003;47479;53.810;18.308;2022-11-20T04:52:40;46;36;21
61584;PMS7003;47479;53.810;18.308;2022-11-20T04:57:41;48;37;23
61584;PMS7003;47479;53.810;18.308;2022-11-20T05:02:43;45;35;21
61584;PMS7003;47479;53.810;18.308;2022-11-20T05:07:46;42;35;21
61584;PMS7003;47479;53.810;18.308;2022-11-20T05:12:47;44;34;23
61584;PMS7003;47479;53.810;18.308;2022-11-20T05:17:49;47;36;22
61584;PMS7003;47479;53.810;18.308;2022-11-20T05:22:52;45;36;22
61584;PMS7003;47479;53.810;18.308;2022-11-20T05:27:55;42;34;22
61584;PMS7003;47479;53.810;18.308;2022-11-20T05:32:56;42;35;22
61584;PMS7003;47479;53.810;18.308;2022-11-20T05:37:58;44;36;21
61584;PMS7003;47479;53.810;18.308;2022-11-20T05:43:00;45;35;22
61584;PMS7003;47479;53.810;18.308;2022-11-20T05:48:02;44;35;20
61584;PMS7003;47479;53.810;18.308;2022-11-20T05:53:04;42;34;21
61584;PMS7003;47479;53.810;18.308;2022-11-20T05:58:05;42;35;21
61584;PMS7003;47479;53.810;18.308;2022-11-20T06:03:07;44;31;21
61584;PMS7003;47479;53.810;18.308;2022-11-20T06:08:09;38;31;20
61584;PMS7003;47479;53.810;18.308;2022-11-20T06:13:26;40;32;20
61584;PMS7003;47479;53.810;18.308;2022-11-20T06:18:28;42;34;21
61584;PMS7003;47479;53.810;18.308;2022-11-20T06:23:30;40;32;20
61584;PMS7003;47479;53.810;18.308;2022-11-20T06:28:34;43;34;20
61584;PMS7003;47479;53.810;18.308;2022-11-20T06:33:36;47;37;21
61584;PMS7003;47479;53.810;18.308;2022-11-20T06:38:38;46;37;20
61584;PMS7003;47479;53.810;18.308;2022-11-20T06:43:40;41;32;20
61584;PMS7003;47479;53.810;18.308;2022-11-20T06:48:42;45;34;20
61584;PMS7003;47479;53.810;18.308;2022-11-20T06:53:44;44;36;20
61584;PMS7003;47479;53.810;18.308;2022-11-20T06:58:46;38;32;20
61584;PMS7003;47479;53.810;18.308;2022-11-20T07:03:49;44;34;20
61584;PMS7003;47479;53.810;18.308;2022-11-20T07:08:52;41;32;20
61584;PMS7003;47479;53.810;18.308;2022-11-20T07:13:53;43;34;20
61584;PMS7003;47479;53.810;18.308;2022-11-20T07:18:56;41;34;20
61584;PMS7003;47479;53.810;18.308;2022-11-20T07:23:58;43;32;21
61584;PMS7003;47479;53.810;18.308;2022-11-20T07:28:59;45;36;22
61584;PMS7003;47479;53.810;18.308;2022-11-20T07:34:01;49;39;23
61584;PMS7003;47479;53.810;18.308;2022-11-20T07:39:15;55;43;25
61584;PMS7003;47479;53.810;18.308;2022-11-20T07:44:16;44;35;21
61584;PMS7003;47479;53.810;18.308;2022-11-20T07:49:18;49;39;25
61584;PMS7003;47479;53.810;18.308;2022-11-20T07:54:20;44;35;22
61584;PMS7003;47479;53.810;18.308;2022-11-20T07:59:22;54;40;24
61584;PMS7003;47479;53.810;18.308;2022-11-20T08:04:24;48;37;23
61584;PMS7003;47479;53.810;18.308;2022-11-20T08:09:25;54;40;24
61584;PMS7003;47479;53.810;18.308;2022-11-20T08:14:30;54;39;24
61584;PMS7003;47479;53.810;18.308;2022-11-20T08:19:31;54;41;25
61584;PMS7003;47479;53.810;18.308;2022-11-20T08:24:33;52;41;24
61584;PMS7003;47479;53.810;18.308;2022-11-20T08:29:35;54;44;25
61584;PMS7003;47479;53.810;18.308;2022-11-20T08:34:37;54;43;27
61584;PMS7003;47479;53.810;18.308;2022-11-20T08:39:39;50;39;24
61584;PMS7003;47479;53.810;18.308;2022-11-20T08:44:41;51;40;24
61584;PMS7003;47479;53.810;18.308;2022-11-20T08:49:43;51;40;23
61584;PMS7003;47479;53.810;18.308;2022-11-20T08:54:45;43;35;20
61584;PMS7003;47479;53.810;18.308;2022-11-20T08:59:47;48;38;24
61584;PMS7003;47479;53.810;18.308;2022-11-20T09:05:03;48;38;22
61584;PMS7003;47479;53.810;18.308;2022-11-20T09:10:06;45;35;22
61584;PMS7003;47479;53.810;18.308;2022-11-20T09:15:10;48;39;25
61584;PMS7003;47479;53.810;18.308;2022-11-20T09:20:13;47;38;23
61584;PMS7003;47479;53.810;18.308;2022-11-20T09:25:15;47;35;22
61584;PMS7003;47479;53.810;18.308;2022-11-20T09:30:17;53;40;24
61584;PMS7003;47479;53.810;18.308;2022-11-20T09:35:19;48;39;24
61584;PMS7003;47479;53.810;18.308;2022-11-20T09:40:22;53;39;24
61584;PMS7003;47479;53.810;18.308;2022-11-20T09:55:57;54;40;25
61584;PMS7003;47479;53.810;18.308;2022-11-20T10:01:11;53;40;25
61584;PMS7003;47479;53.810;18.308;2022-11-20T10:06:15;52;40;25
61584;PMS7003;47479;53.810;18.308;2022-11-20T10:11:24;55;41;25
61584;PMS7003;47479;53.810;18.308;2022-11-20T10:16:28;51;39;25
61584;PMS7003;47479;53.810;18.308;2022-11-20T10:21:59;54;42;25
61584;PMS7003;47479;53.810;18.308;2022-11-20T10:32:48;56;44;26
61584;PMS7003;47479;53.810;18.308;2022-11-20T10:38:00;59;45;26
61584;PMS7003;47479;53.810;18.308;2022-11-20T10:43:08;61;45;27
61584;PMS7003;47479;53.810;18.308;2022-11-20T10:53:23;62;46;29
61584;PMS7003;47479;53.810;18.308;2022-11-20T10:58:31;56;44;27
61584;PMS7003;47479;53.810;18.308;2022-11-20T11:03:40;60;45;27
61584;PMS7003;47479;53.810;18.308;2022-11-20T11:08:44;53;42;26
61584;PMS7003;47479;53.810;18.308;2022-11-20T11:13:48;57;45;28
61584;PMS7003;47479;53.810;18.308;2022-11-20T11:18:49;57;44;27
61584;PMS7003;47479;53.810;18.308;2022-11-20T11:23:59;62;48;28
61584;PMS7003;47479;53.810;18.308;2022-11-20T11:29:03;53;43;28
61584;PMS7003;47479;53.810;18.308;2022-11-20T11:34:16;58;44;28
61584;PMS7003;47479;53.810;18.308;2022-11-20T11:39:18;59;45;27
61584;PMS7003;47479;53.810;18.308;2022-11-20T11:44:23;62;46;28
61584;PMS7003;47479;53.810;18.308;2022-11-20T11:55:19;63;49;29
61584;PMS7003;47479;53.810;18.308;2022-11-20T12:00:41;67;54;32
61584;PMS7003;47479;53.810;18.308;2022-11-20T12:05:48;60;46;29
61584;PMS7003;47479;53.810;18.308;2022-11-20T12:15:52;59;47;30
61584;PMS7003;47479;53.810;18.308;2022-11-20T12:21:02;61;47;29
61584;PMS7003;47479;53.810;18.308;2022-11-20T12:26:27;56;45;28
61584;PMS7003;47479;53.810;18.308;2022-11-20T12:31:35;62;46;28
61584;PMS7003;47479;53.810;18.308;2022-11-20T12:37:04;59;46;29
61584;PMS7003;47479;53.810;18.308;2022-11-20T12:48:19;61;46;29
61584;PMS7003;47479;53.810;18.308;2022-11-20T12:53:51;57;45;29
61584;PMS7003;47479;53.810;18.308;2022-11-20T13:09:15;55;44;29
61584;PMS7003;47479;53.810;18.308;2022-11-20T13:19:31;58;45;27
61584;PMS7003;47479;53.810;18.308;2022-11-20T13:24:33;56;45;27
61584;PMS7003;47479;53.810;18.308;2022-11-20T13:29:58;58;46;28
61584;PMS7003;47479;53.810;18.308;2022-11-20T13:35:03;56;44;25
61584;PMS7003;47479;53.810;18.308;2022-11-20T13:45:28;56;43;26
61584;PMS7003;47479;53.810;18.308;2022-11-20T13:55:43;61;44;26
61584;PMS7003;47479;53.810;18.308;2022-11-20T14:00:55;58;43;26
61584;PMS7003;47479;53.810;18.308;2022-11-20T14:06:10;56;45;27
61584;PMS7003;47479;53.810;18.308;2022-11-20T14:16:30;57;44;27
61584;PMS7003;47479;53.810;18.308;2022-11-20T14:21:33;55;44;28
61584;PMS7003;47479;53.810;18.308;2022-11-20T14:26:35;55;43;26
61584;PMS7003;47479;53.810;18.308;2022-11-20T14:31:38;60;46;29
61584;PMS7003;47479;53.810;18.308;2022-11-20T14:36:40;54;44;27
61584;PMS7003;47479;53.810;18.308;2022-11-20T14:41:49;59;45;28
61584;PMS7003;47479;53.810;18.308;2022-11-20T14:46:53;57;44;28
61584;PMS7003;47479;53.810;18.308;2022-11-20T14:51:59;59;45;28
61584;PMS7003;47479;53.810;18.308;2022-11-20T14:57:05;60;44;27
61584;PMS7003;47479;53.810;18.308;2022-11-20T15:02:17;59;44;27
61584;PMS7003;47479;53.810;18.308;2022-11-20T15:12:29;56;44;28
61584;PMS7003;47479;53.810;18.308;2022-11-20T15:17:35;58;44;27
61584;PMS7003;47479;53.810;18.308;2022-11-20T15:22:38;56;43;26
61584;PMS7003;47479;53.810;18.308;2022-11-20T15:27:40;55;43;27
61584;PMS7003;47479;53.810;18.308;2022-11-20T15:32:43;55;43;27
61584;PMS7003;47479;53.810;18.308;2022-11-20T15:37:45;53;41;26
61584;PMS7003;47479;53.810;18.308;2022-11-20T15:42:46;54;43;27
61584;PMS7003;47479;53.810;18.308;2022-11-20T15:48:12;55;42;27
61584;PMS7003;47479;53.810;18.308;2022-11-20T15:53:11;57;46;28
61584;PMS7003;47479;53.810;18.308;2022-11-20T15:58:23;60;48;28
61584;PMS7003;47479;53.810;18.308;2022-11-20T16:03:25;56;44;28
61584;PMS7003;47479;53.810;18.308;2022-11-20T16:08:27;62;47;29
61584;PMS7003;47479;53.810;18.308;2022-11-20T16:13:30;58;46;30
61584;PMS7003;47479;53.810;18.308;2022-11-20T16:19:11;56;45;28
61584;PMS7003;47479;53.810;18.308;2022-11-20T16:24:13;61;47;28
61584;PMS7003;47479;53.810;18.308;2022-11-20T16:29:15;63;49;30
61584;PMS7003;47479;53.810;18.308;2022-11-20T16:34:17;62;49;29
61584;PMS7003;47479;53.810;18.308;2022-11-20T16:39:19;62;48;29
61584;PMS7003;47479;53.810;18.308;2022-11-20T16:44:36;61;46;28
61584;PMS7003;47479;53.810;18.308;2022-11-20T16:49:37;60;47;28
61584;PMS7003;47479;53.810;18.308;2022-11-20T16:54:39;60;46;28
61584;PMS7003;47479;53.810;18.308;2022-11-20T16:59:40;63;50;29
61584;PMS7003;47479;53.810;18.308;2022-11-20T17:04:42;64;51;30
61584;PMS7003;47479;53.810;18.308;2022-11-20T17:09:44;61;51;30
61584;PMS7003;47479;53.810;18.308;2022-11-20T17:14:46;62;50;30
61584;PMS7003;47479;53.810;18.308;2022-11-20T17:19:47;66;56;32
61584;PMS7003;47479;53.810;18.308;2022-11-20T17:24:49;65;52;32
61584;PMS7003;47479;53.810;18.308;2022-11-20T17:29:51;63;49;30
61584;PMS7003;47479;53.810;18.308;2022-11-20T17:34:54;61;51;31
61584;PMS7003;47479;53.810;18.308;2022-11-20T17:39:57;60;46;29
61584;PMS7003;47479;53.810;18.308;2022-11-20T17:44:58;64;53;33
61584;PMS7003;47479;53.810;18.308;2022-11-20T17:50:00;64;53;30
61584;PMS7003;47479;53.810;18.308;2022-11-20T17:55:01;68;58;34
61584;PMS7003;47479;53.810;18.308;2022-11-20T18:00:03;64;52;32
61584;PMS7003;47479;53.810;18.308;2022-11-20T18:05:06;66;51;30
61584;PMS7003;47479;53.810;18.308;2022-11-20T18:10:24;67;55;30
61584;PMS7003;47479;53.810;18.308;2022-11-20T18:15:27;64;53;31
61584;PMS7003;47479;53.810;18.308;2022-11-20T18:20:29;64;55;30
61584;PMS7003;47479;53.810;18.308;2022-11-20T18:25:31;64;53;31
61584;PMS7003;47479;53.810;18.308;2022-11-20T18:30:33;66;55;35
61584;PMS7003;47479;53.810;18.308;2022-11-20T18:35:36;68;57;32
61584;PMS7003;47479;53.810;18.308;2022-11-20T18:40:40;64;54;32
61584;PMS7003;47479;53.810;18.308;2022-11-20T18:45:41;61;50;30
61584;PMS7003;47479;53.810;18.308;2022-11-20T18:50:43;67;52;30
61584;PMS7003;47479;53.810;18.308;2022-11-20T18:55:45;70;59;32
61584;PMS7003;47479;53.810;18.308;2022-11-20T19:00:46;65;50;31
61584;PMS7003;47479;53.810;18.308;2022-11-20T19:05:48;66;56;33
61584;PMS7003;47479;53.810;18.308;2022-11-20T19:10:49;68;59;32
61584;PMS7003;47479;53.810;18.308;2022-11-20T19:15:51;62;50;30
61584;PMS7003;47479;53.810;18.308;2022-11-20T19:25:11;57;47;30
61584;PMS7003;47479;53.810;18.308;2022-11-20T19:30:13;66;54;32
61584;PMS7003;47479;53.810;18.308;2022-11-20T19:35:15;63;52;30
61584;PMS7003;47479;53.810;18.308;2022-11-20T19:40:17;61;48;30
61584;PMS7003;47479;53.810;18.308;2022-11-20T19:45:19;62;51;31
61584;PMS7003;47479;53.810;18.308;2022-11-20T19:50:20;61;51;31
61584;PMS7003;47479;53.810;18.308;2022-11-20T19:55:22;61;50;31
61584;PMS7003;47479;53.810;18.308;2022-11-20T20:00:23;64;53;31
61584;PMS7003;47479;53.810;18.308;2022-11-20T20:05:26;63;52;32
61584;PMS7003;47479;53.810;18.308;2022-11-20T20:10:27;61;47;29
61584;PMS7003;47479;53.810;18.308;2022-11-20T20:15:29;62;50;29
61584;PMS7003;47479;53.810;18.308;2022-11-20T20:20:31;65;54;33
61584;PMS7003;47479;53.810;18.308;2022-11-20T20:25:32;64;54;32
61584;PMS7003;47479;53.810;18.308;2022-11-20T20:30:35;65;56;32
61584;PMS7003;47479;53.810;18.308;2022-11-20T20:35:41;66;54;30
61584;PMS7003;47479;53.810;18.308;2022-11-20T20:40:46;63;54;34
61584;PMS7003;47479;53.810;18.308;2022-11-20T20:46:00;115;107;63
61584;PMS7003;47479;53.810;18.308;2022-11-20T20:51:01;70;62;36
61584;PMS7003;47479;53.810;18.308;2022-11-20T20:56:03;70;59;34
61584;PMS7003;47479;53.810;18.308;2022-11-20T21:01:06;63;55;33
61584;PMS7003;47479;53.810;18.308;2022-11-20T21:06:09;67;58;35
61584;PMS7003;47479;53.810;18.308;2022-11-20T21:11:12;65;54;34
61584;PMS7003;47479;53.810;18.308;2022-11-20T21:16:15;66;56;31
61584;PMS7003;47479;53.810;18.308;2022-11-20T21:21:17;64;54;32
61584;PMS7003;47479;53.810;18.308;2022-11-20T21:26:58;64;53;31
61584;PMS7003;47479;53.810;18.308;2022-11-20T21:32:12;62;52;31
61584;PMS7003;47479;53.810;18.308;2022-11-20T21:37:14;61;46;28
61584;PMS7003;47479;53.810;18.308;2022-11-20T21:42:16;64;53;31
61584;PMS7003;47479;53.810;18.308;2022-11-20T21:47:17;64;50;29
61584;PMS7003;47479;53.810;18.308;2022-11-20T21:52:19;58;45;29
61584;PMS7003;47479;53.810;18.308;2022-11-20T21:57:21;54;41;25
61584;PMS7003;47479;53.810;18.308;2022-11-20T22:02:22;54;41;27
61584;PMS7003;47479;53.810;18.308;2022-11-20T22:07:24;57;45;26
61584;PMS7003;47479;53.810;18.308;2022-11-20T22:12:26;51;41;26
61584;PMS7003;47479;53.810;18.308;2022-11-20T22:17:28;53;43;26
61584;PMS7003;47479;53.810;18.308;2022-11-20T22:23:08;42;35;23
61584;PMS7003;47479;53.810;18.308;2022-11-20T22:28:20;45;36;22
61584;PMS7003;47479;53.810;18.308;2022-11-20T22:33:22;38;33;21
61584;PMS7003;47479;53.810;18.308;2022-11-20T22:38:24;42;33;22
61584;PMS7003;47479;53.810;18.308;2022-11-20T22:43:25;40;33;21
61584;PMS7003;47479;53.810;18.308;2022-11-20T22:48:27;46;36;23
61584;PMS7003;47479;53.810;18.308;2022-11-20T22:53:29;46;36;21
61584;PMS7003;47479;53.810;18.308;2022-11-20T22:58:32;38;32;19
61584;PMS7003;47479;53.810;18.308;2022-11-20T23:03:34;42;32;20
61584;PMS7003;47479;53.810;18.308;2022-11-20T23:08:36;42;35;20
61584;PMS7003;47479;53.810;18.308;2022-11-20T23:13:38;39;33;20
61584;PMS7003;47479;53.810;18.308;2022-11-20T23:18:41;37;29;19
61584;PMS7003;47479;53.810;18.308;2022-11-20T23:23:46;37;30;19
61584;PMS7003;47479;53.810;18.308;2022-11-20T23:28:51;37;31;19
61584;PMS7003;47479;53.810;18.308;2022-11-20T23:33:53;40;31;20
61584;PMS7003;47479;53.810;18.308;2022-11-20T23:38:55;32;28;18
61584;PMS7003;47479;53.810;18.308;2022-11-20T23:43:57;38;32;19
61584;PMS7003;47479;53.810;18.308;2022-11-20T23:48:58;38;29;18
61584;PMS7003;47479;53.810;18.308;2022-11-20T23:54:11;35;29;18
61584;PMS7003;47479;53.810;18.308;2022-11-20T23:59:12;38;32;19
